createdAt,value
2023-06-25T00:02:08.383Z,6.20
2023-06-25T00:06:11.521Z,6.22
2023-06-25T00:10:15.221Z,6.53
2023-06-25T00:14:18.274Z,6.32
2023-06-25T00:18:22.774Z,6.50
2023-06-25T00:22:25.853Z,6.50
2023-06-25T00:26:29.003Z,6.13
2023-06-25T00:30:34.463Z,6.43
2023-06-25T00:34:42.833Z,6.53
2023-06-25T00:38:46.287Z,6.38
2023-06-25T00:42:50.345Z,6.30
2023-06-25T00:46:55.385Z,5.97
2023-06-25T00:51:05.078Z,6.60
2023-06-25T00:55:09.543Z,6.70
2023-06-25T00:59:13.943Z,6.47
2023-06-25T01:03:28.588Z,6.70
2023-06-25T01:07:37.767Z,6.30
2023-06-25T01:11:40.889Z,6.68
2023-06-25T01:15:44.981Z,6.60
2023-06-25T01:19:51.983Z,6.18
2023-06-25T01:23:56.702Z,6.57
2023-06-25T01:28:05.653Z,6.63
2023-06-25T01:32:09.774Z,6.90
2023-06-25T01:36:13.627Z,7.20
2023-06-25T01:40:18.512Z,6.40
2023-06-25T01:44:28.290Z,7.55
2023-06-25T01:48:32.751Z,7.22
2023-06-25T01:52:35.837Z,7.70
2023-06-25T01:56:40.546Z,6.80
2023-06-25T02:00:46.051Z,6.93
2023-06-25T02:04:51.949Z,7.43
2023-06-25T02:09:00.045Z,7.03
2023-06-25T02:13:04.463Z,6.80
2023-06-25T02:17:07.871Z,6.90
2023-06-25T02:21:11.113Z,6.18
2023-06-25T02:25:16.289Z,7.15
2023-06-25T02:29:20.937Z,6.47
2023-06-25T02:33:23.998Z,7.50
2023-06-25T02:37:30.657Z,6.60
2023-06-25T02:41:35.846Z,7.50
2023-06-25T02:45:40.282Z,6.60
2023-06-25T02:49:46.887Z,6.95
2023-06-25T02:53:49.951Z,6.70
2023-06-25T02:57:55.602Z,6.82
2023-06-25T03:02:02.485Z,7.15
2023-06-25T03:06:05.675Z,6.75
2023-06-25T03:10:14.701Z,6.82
2023-06-25T03:14:34.114Z,7.38
2023-06-25T03:18:39.280Z,6.82
2023-06-25T03:22:42.778Z,6.78
2023-06-25T03:26:48.058Z,7.38
2023-06-25T03:30:51.180Z,6.55
2023-06-25T03:34:56.659Z,7.15
2023-06-25T03:39:02.053Z,7.07
2023-06-25T03:43:05.291Z,7.00
2023-06-25T03:47:08.724Z,6.43
2023-06-25T03:51:17.667Z,6.35
2023-06-25T03:55:21.114Z,6.55
2023-06-25T03:59:30.823Z,7.13
2023-06-25T04:03:34.841Z,6.82
2023-06-25T04:07:39.296Z,6.68
2023-06-25T04:11:42.625Z,6.05
2023-06-25T04:15:45.754Z,6.05
2023-06-25T04:19:51.086Z,5.90
2023-06-25T04:23:58.532Z,6.38
2023-06-25T04:28:03.263Z,6.68
2023-06-25T04:32:08.300Z,6.35
2023-06-25T04:36:12.774Z,6.57
2023-06-25T04:40:21.165Z,6.57
2023-06-25T04:44:27.531Z,6.43
2023-06-25T04:48:33.076Z,6.10
2023-06-25T04:52:39.123Z,6.40
2023-06-25T04:56:43.741Z,6.20
2023-06-25T05:00:58.965Z,6.03
2023-06-25T05:05:08.042Z,5.53
2023-06-25T05:09:11.094Z,6.18
2023-06-25T05:13:18.305Z,6.45
2023-06-25T05:17:21.545Z,6.55
2023-06-25T05:21:26.003Z,6.68
2023-06-25T05:25:32.318Z,6.50
2023-06-25T05:29:37.145Z,6.53
2023-06-25T05:33:40.392Z,5.70
2023-06-25T05:37:45.423Z,6.80
2023-06-25T05:41:48.588Z,6.60
2023-06-25T05:45:53.056Z,6.60
2023-06-25T05:49:57.978Z,5.95
2023-06-25T05:54:01.067Z,5.95
2023-06-25T05:58:05.343Z,6.25
2023-06-25T06:02:13.661Z,6.00
2023-06-25T06:06:17.524Z,6.45
2023-06-25T06:10:21.290Z,6.75
2023-06-25T06:14:24.541Z,6.28
2023-06-25T06:18:32.298Z,5.38
2023-06-25T06:22:35.365Z,5.95
2023-06-25T06:26:39.799Z,5.78
2023-06-25T06:30:45.311Z,5.50
2023-06-25T06:34:50.242Z,6.13
2023-06-25T06:38:53.305Z,6.60
2023-06-25T06:42:57.159Z,6.40
2023-06-25T06:47:00.630Z,6.47
2023-06-25T06:51:05.180Z,6.40
2023-06-25T06:55:09.222Z,6.38
2023-06-25T06:59:12.268Z,6.20
2023-06-25T07:03:15.282Z,6.00
2023-06-25T07:07:22.450Z,6.38
2023-06-25T07:11:27.404Z,6.72
2023-06-25T07:15:31.458Z,6.25
2023-06-25T07:19:36.640Z,6.43
2023-06-25T07:23:44.578Z,6.13
2023-06-25T07:27:47.922Z,6.03
2023-06-25T07:31:51.013Z,6.60
2023-06-25T07:35:54.091Z,6.28
2023-06-25T07:39:59.464Z,6.35
2023-06-25T07:44:13.720Z,6.60
2023-06-25T07:48:27.644Z,5.93
2023-06-25T07:52:30.722Z,6.32
2023-06-25T07:56:35.171Z,5.90
2023-06-25T08:00:41.215Z,5.85
2023-06-25T08:04:46.346Z,6.28
2023-06-25T08:08:49.713Z,5.60
2023-06-25T08:12:56.121Z,5.68
2023-06-25T08:16:59.251Z,5.63
2023-06-25T08:21:06.250Z,6.60
2023-06-25T08:25:21.413Z,5.93
2023-06-25T08:29:34.770Z,6.00
2023-06-25T08:33:40.527Z,5.63
2023-06-25T08:37:43.986Z,5.22
2023-06-25T08:41:49.974Z,5.70
2023-06-25T08:45:54.778Z,5.53
2023-06-25T08:49:57.816Z,5.82
2023-06-25T08:54:00.918Z,5.60
2023-06-25T08:58:07.092Z,5.57
2023-06-25T09:02:11.755Z,5.57
2023-06-25T09:06:18.490Z,5.45
2023-06-25T09:10:24.579Z,4.78
2023-06-25T09:14:27.858Z,4.80
2023-06-25T09:18:32.542Z,4.43
2023-06-25T09:22:35.901Z,4.95
2023-06-25T09:26:50.949Z,4.65
2023-06-25T09:30:58.372Z,5.00
2023-06-25T09:35:06.525Z,4.88
2023-06-25T09:39:14.176Z,5.18
2023-06-25T09:43:17.545Z,5.22
2023-06-25T09:47:23.168Z,4.65
2023-06-25T09:51:33.469Z,5.10
2023-06-25T09:55:38.998Z,4.80
2023-06-25T09:59:42.279Z,5.40
2023-06-25T10:03:45.887Z,4.72
2023-06-25T10:07:53.758Z,4.93
2023-06-25T10:11:58.938Z,4.95
2023-06-25T10:16:08.694Z,5.05
2023-06-25T10:20:12.367Z,5.13
2023-06-25T10:24:16.916Z,4.82
2023-06-25T10:28:20.362Z,4.88
2023-06-25T10:32:26.898Z,5.18
2023-06-25T10:36:30.451Z,5.13
2023-06-25T10:40:37.086Z,4.82
2023-06-25T10:44:41.286Z,4.63
2023-06-25T10:48:49.117Z,5.43
2023-06-25T10:52:55.489Z,5.07
2023-06-25T10:57:19.275Z,5.10
2023-06-25T11:01:22.413Z,5.32
2023-06-25T11:05:36.121Z,4.72
2023-06-25T11:09:43.964Z,5.28
2023-06-25T11:13:53.881Z,5.18
2023-06-25T11:18:00.086Z,4.93
2023-06-25T11:22:14.122Z,5.38
2023-06-25T11:26:20.626Z,5.22
2023-06-25T11:30:28.944Z,5.07
2023-06-25T11:34:35.054Z,5.25
2023-06-25T11:38:47.090Z,6.30
2023-06-25T11:42:50.235Z,5.30
2023-06-25T11:46:55.090Z,5.28
2023-06-25T11:51:06.966Z,5.38
2023-06-25T11:55:11.157Z,5.10
2023-06-25T11:59:15.372Z,5.70
2023-06-25T12:03:22.956Z,5.03
2023-06-25T12:07:26.666Z,4.85
2023-06-25T12:11:29.913Z,4.57
2023-06-25T12:15:32.932Z,4.90
2023-06-25T12:19:37.352Z,4.85
2023-06-25T12:23:42.229Z,5.50
2023-06-25T12:27:46.845Z,5.18
2023-06-25T12:31:53.066Z,5.75
2023-06-25T12:35:57.466Z,4.72
2023-06-25T12:40:00.567Z,4.72
2023-06-25T12:44:04.553Z,5.30
2023-06-25T12:48:07.874Z,5.03
2023-06-25T12:52:12.517Z,5.22
2023-06-25T12:56:17.271Z,4.50
2023-06-25T13:00:33.931Z,4.65
2023-06-25T13:04:45.992Z,4.75
2023-06-25T13:08:53.197Z,4.65
2023-06-25T13:12:56.242Z,4.72
2023-06-25T13:16:59.274Z,4.55
2023-06-25T13:21:06.278Z,4.35
2023-06-25T13:25:11.941Z,4.20
2023-06-25T13:29:18.518Z,4.38
2023-06-25T13:33:23.851Z,4.47
2023-06-25T13:37:30.580Z,4.55
2023-06-25T13:41:36.181Z,4.72
2023-06-25T13:45:39.499Z,4.28
2023-06-25T13:49:45.171Z,4.70
2023-06-25T13:53:54.496Z,4.05
2023-06-25T13:57:59.398Z,4.43
2023-06-25T14:02:02.611Z,4.30
2023-06-25T14:06:12.234Z,4.68
2023-06-25T14:10:17.784Z,4.18
2023-06-25T14:14:22.485Z,4.90
2023-06-25T14:18:25.990Z,4.18
2023-06-25T14:22:29.398Z,4.25
2023-06-25T14:26:32.740Z,4.30
2023-06-25T14:30:37.217Z,4.65
2023-06-25T14:34:40.643Z,4.10
2023-06-25T14:38:46.727Z,4.10
2023-06-25T14:42:52.803Z,4.70
2023-06-25T14:46:58.548Z,4.63
2023-06-25T14:51:03.771Z,4.55
2023-06-25T14:55:07.131Z,3.92
2023-06-25T14:59:13.504Z,4.20
2023-06-25T15:03:18.160Z,4.20
2023-06-25T15:07:26.072Z,4.18
2023-06-25T15:11:33.597Z,4.05
2023-06-25T15:15:45.799Z,4.25
2023-06-25T15:19:51.061Z,4.47
2023-06-25T15:23:57.253Z,3.88
2023-06-25T15:28:00.919Z,4.18
2023-06-25T15:32:06.296Z,3.97
2023-06-25T15:36:17.134Z,4.30
2023-06-25T15:40:26.383Z,4.53
2023-06-25T15:44:30.086Z,3.78
2023-06-25T15:48:34.989Z,4.10
2023-06-25T15:52:40.565Z,4.15
2023-06-25T15:56:43.836Z,4.15
2023-06-25T16:00:48.229Z,4.00
2023-06-25T16:04:51.345Z,4.55
2023-06-25T16:09:01.880Z,4.00
2023-06-25T16:13:10.179Z,4.13
2023-06-25T16:17:16.181Z,4.28
2023-06-25T16:21:22.051Z,3.85
2023-06-25T16:25:26.921Z,4.38
2023-06-25T16:29:30.282Z,4.03
2023-06-25T16:33:35.555Z,4.30
2023-06-25T16:37:39.170Z,4.10
2023-06-25T16:41:43.737Z,3.65
2023-06-25T16:45:47.171Z,4.65
2023-06-25T16:49:50.778Z,4.00
2023-06-25T16:54:03.112Z,4.07
2023-06-25T16:58:07.614Z,3.80
2023-06-25T17:02:11.088Z,3.75
2023-06-25T17:06:14.276Z,4.15
2023-06-25T17:10:22.283Z,3.78
2023-06-25T17:14:28.622Z,4.00
2023-06-25T17:18:38.151Z,5.78
2023-06-25T17:22:44.153Z,5.45
2023-06-25T17:26:50.168Z,6.57
2023-06-25T17:30:57.834Z,4.82
2023-06-25T17:35:01.159Z,6.45
2023-06-25T17:39:04.447Z,4.18
2023-06-25T17:43:07.742Z,4.35
2023-06-25T17:47:12.690Z,4.35
2023-06-25T17:51:15.873Z,3.63
2023-06-25T17:55:20.950Z,3.70
2023-06-25T17:59:29.013Z,3.53
2023-06-25T18:03:34.463Z,4.03
2023-06-25T18:07:41.483Z,4.20
2023-06-25T18:11:49.286Z,3.90
2023-06-25T18:15:52.366Z,4.13
2023-06-25T18:19:58.535Z,4.05
2023-06-25T18:24:06.329Z,4.07
2023-06-25T18:28:14.777Z,4.28
2023-06-25T18:32:17.839Z,4.15
2023-06-25T18:36:25.703Z,4.10
2023-06-25T18:40:28.804Z,4.07
2023-06-25T18:44:31.854Z,4.35
2023-06-25T18:48:35.114Z,4.15
2023-06-25T18:52:39.609Z,4.65
2023-06-25T18:56:43.881Z,4.60
2023-06-25T19:00:47.474Z,4.82
2023-06-25T19:04:51.990Z,4.70
2023-06-25T19:08:59.228Z,4.97
2023-06-25T19:13:02.282Z,4.72
2023-06-25T19:17:07.871Z,4.53
2023-06-25T19:21:11.887Z,5.28
2023-06-25T19:25:16.482Z,4.65
2023-06-25T19:29:19.758Z,5.00
2023-06-25T19:33:23.040Z,4.65
2023-06-25T19:37:27.820Z,5.10
2023-06-25T19:41:35.252Z,4.72
2023-06-25T19:45:39.230Z,5.00
2023-06-25T19:49:47.018Z,4.93
2023-06-25T19:53:50.048Z,4.90
2023-06-25T19:58:11.786Z,4.80
2023-06-25T20:02:15.047Z,5.20
2023-06-25T20:06:18.258Z,5.15
2023-06-25T20:10:21.554Z,5.25
2023-06-25T20:14:33.564Z,5.32
2023-06-25T20:18:39.114Z,5.35
2023-06-25T20:22:44.862Z,5.13
2023-06-25T20:26:54.415Z,5.38
2023-06-25T20:31:01.401Z,5.45
2023-06-25T20:35:06.927Z,5.95
2023-06-25T20:39:10.166Z,5.35
2023-06-25T20:43:16.162Z,5.45
2023-06-25T20:47:24.031Z,5.45
2023-06-25T20:51:27.210Z,5.85
2023-06-25T20:55:30.264Z,4.85
2023-06-25T20:59:33.500Z,5.00
2023-06-25T21:03:40.502Z,5.90
2023-06-25T21:07:45.762Z,5.30
2023-06-25T21:11:51.498Z,6.07
2023-06-25T21:15:57.147Z,5.32
2023-06-25T21:20:04.511Z,5.28
2023-06-25T21:24:08.897Z,5.65
2023-06-25T21:28:15.068Z,5.43
2023-06-25T21:32:22.961Z,5.40
2023-06-25T21:36:28.480Z,5.25
2023-06-25T21:40:31.993Z,5.78
2023-06-25T21:44:35.867Z,6.10
2023-06-25T21:48:38.900Z,5.72
2023-06-25T21:52:46.836Z,5.75
2023-06-25T21:56:52.816Z,5.70
2023-06-25T22:00:56.184Z,5.43
2023-06-25T22:05:04.784Z,6.10
2023-06-25T22:09:11.149Z,5.95
2023-06-25T22:13:19.041Z,6.05
2023-06-25T22:17:25.452Z,5.88
2023-06-25T22:21:29.595Z,6.00
2023-06-25T22:25:34.068Z,6.20
2023-06-25T22:29:43.335Z,5.70
2023-06-25T22:33:46.603Z,5.63
2023-06-25T22:37:50.132Z,6.38
2023-06-25T22:41:54.616Z,5.38
2023-06-25T22:45:57.703Z,5.72
2023-06-25T22:50:00.830Z,5.72
2023-06-25T22:54:04.217Z,6.57
2023-06-25T22:58:13.546Z,6.10
2023-06-25T23:02:17.154Z,6.38
2023-06-25T23:06:24.515Z,6.55
2023-06-25T23:10:31.368Z,5.72
2023-06-25T23:14:36.945Z,6.07
2023-06-25T23:18:40.231Z,6.75
2023-06-25T23:22:43.262Z,6.82
2023-06-25T23:26:50.293Z,6.20
2023-06-25T23:30:55.330Z,6.57
2023-06-25T23:34:59.713Z,7.10
2023-06-25T23:39:03.198Z,6.10
2023-06-25T23:43:07.515Z,6.50
2023-06-25T23:47:12.039Z,6.35
2023-06-25T23:51:15.055Z,6.65
2023-06-25T23:55:20.377Z,6.05
2023-06-25T23:59:25.826Z,6.70
